createdAt,value
2022-12-01T00:01:19.545Z,11.93
2022-12-01T00:03:46.743Z,11.25
2022-12-01T00:06:19.705Z,9.55
2022-12-01T00:09:07.440Z,10.60
2022-12-01T00:11:36.210Z,9.95
2022-12-01T00:14:04.348Z,9.98
2022-12-01T00:16:31.723Z,8.82
2022-12-01T00:18:59.011Z,8.70
2022-12-01T00:21:27.019Z,9.27
2022-12-01T00:23:56.500Z,9.77
2022-12-01T00:26:24.807Z,8.80
2022-12-01T00:28:53.430Z,9.05
2022-12-01T00:31:20.910Z,8.95
2022-12-01T00:33:48.084Z,8.43
2022-12-01T00:36:15.294Z,9.10
2022-12-01T00:38:42.387Z,9.13
2022-12-01T00:41:09.479Z,8.30
2022-12-01T00:43:36.577Z,9.00
2022-12-01T00:46:03.807Z,9.18
2022-12-01T00:48:30.980Z,9.15
2022-12-01T00:50:58.050Z,8.63
2022-12-01T00:53:25.166Z,9.07
2022-12-01T00:55:55.501Z,9.52
2022-12-01T00:58:23.913Z,9.40
2022-12-01T01:00:59.187Z,9.70
2022-12-01T01:03:27.284Z,9.38
2022-12-01T01:05:54.732Z,8.35
2022-12-01T01:08:21.771Z,8.07
2022-12-01T01:10:49.245Z,8.87
2022-12-01T01:13:16.775Z,8.48
2022-12-01T01:15:43.815Z,8.03
2022-12-01T01:18:12.021Z,8.50
2022-12-01T01:20:39.248Z,7.97
2022-12-01T01:23:06.597Z,12.38
2022-12-01T01:25:33.640Z,9.65
2022-12-01T01:28:00.708Z,9.70
2022-12-01T01:30:28.395Z,9.55
2022-12-01T01:32:55.533Z,8.48
2022-12-01T01:35:22.597Z,9.15
2022-12-01T01:37:50.793Z,8.57
2022-12-01T01:40:18.588Z,8.57
2022-12-01T01:42:45.972Z,8.43
2022-12-01T01:45:25.057Z,7.77
2022-12-01T01:47:53.637Z,7.80
2022-12-01T01:50:24.401Z,7.30
2022-12-01T01:53:02.232Z,8.20
2022-12-01T01:55:31.766Z,8.13
2022-12-01T01:57:59.936Z,8.10
2022-12-01T02:00:27.038Z,7.87
2022-12-01T02:02:57.085Z,7.87
2022-12-01T02:05:28.815Z,7.43
2022-12-01T02:07:58.433Z,7.70
2022-12-01T02:10:43.748Z,7.30
2022-12-01T02:13:22.880Z,7.65
2022-12-01T02:16:20.165Z,7.97
2022-12-01T02:19:06.173Z,8.70
2022-12-01T02:21:55.018Z,8.53
2022-12-01T02:24:56.837Z,8.40
2022-12-01T02:28:10.678Z,8.40
2022-12-01T02:30:45.573Z,8.80
2022-12-01T02:33:31.418Z,8.57
2022-12-01T02:36:20.282Z,10.20
2022-12-01T02:39:13.394Z,9.40
2022-12-01T02:41:48.277Z,9.38
2022-12-01T02:44:35.166Z,9.50
2022-12-01T02:47:15.711Z,10.50
2022-12-01T02:49:51.626Z,9.07
2022-12-01T02:52:22.123Z,8.57
2022-12-01T02:54:49.714Z,9.32
2022-12-01T02:57:17.566Z,8.13
2022-12-01T02:59:49.959Z,8.38
2022-12-01T03:02:30.387Z,8.43
2022-12-01T03:05:21.554Z,8.65
2022-12-01T03:08:33.422Z,8.82
2022-12-01T03:11:02.364Z,8.82
2022-12-01T03:13:42.840Z,8.93
2022-12-01T03:16:16.348Z,8.73
2022-12-01T03:18:54.723Z,8.47
2022-12-01T03:21:54.037Z,8.40
2022-12-01T03:24:26.167Z,8.00
2022-12-01T03:26:57.157Z,8.30
2022-12-01T03:29:30.678Z,9.88
2022-12-01T03:32:17.475Z,9.02
2022-12-01T03:34:47.046Z,8.68
2022-12-01T03:37:19.706Z,8.38
2022-12-01T03:39:49.582Z,8.30
2022-12-01T03:42:31.601Z,8.27
2022-12-01T03:45:03.708Z,8.30
2022-12-01T03:47:37.175Z,8.38
2022-12-01T03:50:07.267Z,9.23
2022-12-01T03:53:19.216Z,8.65
2022-12-01T03:55:53.228Z,8.52
2022-12-01T03:58:30.520Z,8.15
2022-12-01T04:00:59.132Z,8.03
2022-12-01T04:03:26.860Z,8.30
2022-12-01T04:05:54.023Z,7.85
2022-12-01T04:08:21.225Z,8.98
2022-12-01T04:10:48.345Z,8.07
2022-12-01T04:13:25.456Z,8.70
2022-12-01T04:15:53.835Z,8.38
2022-12-01T04:18:21.703Z,10.40
2022-12-01T04:20:50.165Z,9.40
2022-12-01T04:23:36.044Z,9.00
2022-12-01T04:26:04.930Z,8.63
2022-12-01T04:28:31.976Z,9.90
2022-12-01T04:30:59.161Z,8.35
2022-12-01T04:33:26.247Z,8.65
2022-12-01T04:35:58.440Z,8.45
2022-12-01T04:38:30.571Z,8.25
2022-12-01T04:40:58.648Z,8.30
2022-12-01T04:43:25.734Z,8.00
2022-12-01T04:45:52.776Z,7.95
2022-12-01T04:48:19.793Z,7.47
2022-12-01T04:50:49.444Z,7.13
2022-12-01T04:53:16.485Z,7.68
2022-12-01T04:55:43.520Z,7.75
2022-12-01T04:58:10.558Z,7.80
2022-12-01T05:00:37.895Z,7.57
2022-12-01T05:03:06.357Z,8.27
2022-12-01T05:05:34.743Z,8.02
2022-12-01T05:08:01.819Z,7.50
2022-12-01T05:10:29.104Z,6.90
2022-12-01T05:12:57.884Z,7.17
2022-12-01T05:15:24.953Z,7.15
2022-12-01T05:17:52.054Z,6.97
2022-12-01T05:20:40.606Z,6.75
2022-12-01T05:23:10.847Z,7.10
2022-12-01T05:25:42.356Z,6.57
2022-12-01T05:28:09.437Z,6.50
2022-12-01T05:30:36.574Z,6.68
2022-12-01T05:33:03.669Z,6.50
2022-12-01T05:35:32.455Z,6.90
2022-12-01T05:38:03.260Z,6.37
2022-12-01T05:40:35.155Z,6.20
2022-12-01T05:43:02.504Z,6.88
2022-12-01T05:45:29.653Z,6.63
2022-12-01T05:47:57.902Z,6.70
2022-12-01T05:50:25.974Z,6.65
2022-12-01T05:52:53.079Z,8.00
2022-12-01T05:55:20.249Z,6.95
2022-12-01T05:57:47.731Z,8.18
2022-12-01T06:00:15.938Z,8.18
2022-12-01T06:02:43.822Z,7.82
2022-12-01T06:05:10.946Z,7.88
2022-12-01T06:07:40.191Z,8.57
2022-12-01T06:10:09.220Z,8.98
2022-12-01T06:12:37.330Z,8.50
2022-12-01T06:15:06.589Z,8.63
2022-12-01T06:17:39.761Z,8.50
2022-12-01T06:20:08.399Z,8.45
2022-12-01T06:22:35.450Z,8.70
2022-12-01T06:25:02.612Z,8.13
2022-12-01T06:27:29.835Z,8.15
2022-12-01T06:29:56.898Z,7.57
2022-12-01T06:32:23.955Z,9.07
2022-12-01T06:34:51.012Z,7.63
2022-12-01T06:37:18.170Z,7.77
2022-12-01T06:39:45.327Z,7.57
2022-12-01T06:42:12.512Z,7.43
2022-12-01T06:44:39.692Z,7.88
2022-12-01T06:47:08.107Z,7.45
2022-12-01T06:49:35.691Z,7.13
2022-12-01T06:52:02.815Z,7.60
2022-12-01T06:54:29.972Z,8.10
2022-12-01T06:56:58.406Z,6.85
2022-12-01T06:59:26.001Z,7.53
2022-12-01T07:01:53.488Z,7.93
2022-12-01T07:04:20.621Z,7.50
2022-12-01T07:06:47.680Z,10.18
2022-12-01T07:09:14.744Z,9.63
2022-12-01T07:11:41.928Z,9.80
2022-12-01T07:14:19.480Z,14.82
2022-12-01T07:16:46.583Z,11.87
2022-12-01T07:19:13.647Z,10.73
2022-12-01T07:21:40.704Z,12.40
2022-12-01T07:24:08.212Z,11.98
2022-12-01T07:26:35.409Z,12.05
2022-12-01T07:29:02.428Z,10.20
2022-12-01T07:31:29.661Z,10.02
2022-12-01T07:33:57.117Z,8.95
2022-12-01T07:36:24.181Z,9.13
2022-12-01T07:38:51.288Z,9.25
2022-12-01T07:41:19.384Z,8.70
2022-12-01T07:43:48.019Z,8.23
2022-12-01T07:46:22.789Z,8.20
2022-12-01T07:48:51.843Z,8.23
2022-12-01T07:51:19.906Z,7.32
2022-12-01T07:53:51.736Z,8.63
2022-12-01T07:56:20.576Z,9.03
2022-12-01T07:58:47.701Z,8.15
2022-12-01T08:01:17.730Z,8.60
2022-12-01T08:03:45.164Z,7.63
2022-12-01T08:06:12.293Z,8.60
2022-12-01T08:08:40.721Z,7.72
2022-12-01T08:11:20.985Z,7.65
2022-12-01T08:13:48.154Z,7.83
2022-12-01T08:16:18.754Z,8.10
2022-12-01T08:18:46.123Z,7.68
2022-12-01T08:21:15.219Z,7.82
2022-12-01T08:23:43.293Z,7.22
2022-12-01T08:26:16.103Z,6.60
2022-12-01T08:28:43.876Z,6.67
2022-12-01T08:31:21.593Z,6.80
2022-12-01T08:33:48.974Z,6.68
2022-12-01T08:36:17.464Z,6.80
2022-12-01T08:38:45.637Z,6.55
2022-12-01T08:41:13.940Z,6.60
2022-12-01T08:44:00.458Z,6.85
2022-12-01T08:46:31.442Z,6.50
2022-12-01T08:48:58.710Z,6.65
2022-12-01T08:51:26.778Z,6.72
2022-12-01T08:53:55.453Z,7.40
2022-12-01T08:56:32.672Z,7.22
2022-12-01T08:59:00.417Z,6.43
2022-12-01T09:01:28.516Z,6.50
2022-12-01T09:04:08.083Z,7.15
2022-12-01T09:06:40.408Z,6.50
2022-12-01T09:09:10.030Z,5.83
2022-12-01T09:11:37.467Z,5.75
2022-12-01T09:14:04.682Z,5.70
2022-12-01T09:16:32.524Z,5.97
2022-12-01T09:18:59.607Z,5.60
2022-12-01T09:21:30.242Z,6.37
2022-12-01T09:23:57.579Z,6.00
2022-12-01T09:26:25.270Z,6.17
2022-12-01T09:28:58.191Z,5.63
2022-12-01T09:31:25.595Z,5.97
2022-12-01T09:33:57.207Z,6.00
2022-12-01T09:36:25.072Z,6.18
2022-12-01T09:38:52.355Z,6.18
2022-12-01T09:41:21.595Z,6.22
2022-12-01T09:43:58.459Z,6.03
2022-12-01T09:46:31.965Z,8.40
2022-12-01T09:49:02.564Z,8.43
2022-12-01T09:51:30.995Z,9.43
2022-12-01T09:53:59.782Z,8.80
2022-12-01T09:56:36.315Z,9.18
2022-12-01T09:59:08.011Z,8.48
2022-12-01T10:01:38.650Z,7.83
2022-12-01T10:04:33.543Z,7.50
2022-12-01T10:07:20.646Z,8.60
2022-12-01T10:09:55.278Z,7.55
2022-12-01T10:12:27.547Z,8.15
2022-12-01T10:15:20.816Z,7.80
2022-12-01T10:17:53.360Z,7.75
2022-12-01T10:20:49.571Z,6.95
2022-12-01T10:23:28.606Z,7.32
2022-12-01T10:26:19.809Z,6.00
2022-12-01T10:29:12.005Z,6.95
2022-12-01T10:31:55.310Z,6.13
2022-12-01T10:34:28.886Z,5.88
2022-12-01T10:36:56.702Z,6.55
2022-12-01T10:39:34.008Z,5.65
2022-12-01T10:42:10.496Z,5.95
2022-12-01T10:44:38.306Z,5.80
2022-12-01T10:47:15.841Z,5.63
2022-12-01T10:49:42.869Z,10.05
2022-12-01T10:52:29.165Z,6.78
2022-12-01T10:54:56.270Z,6.75
2022-12-01T10:57:23.697Z,6.20
2022-12-01T10:59:53.054Z,6.80
2022-12-01T11:02:23.415Z,6.57
2022-12-01T11:04:57.501Z,6.23
2022-12-01T11:07:29.641Z,6.57
2022-12-01T11:10:19.290Z,6.38
2022-12-01T11:13:18.465Z,7.10
2022-12-01T11:15:57.354Z,7.70
2022-12-01T11:18:38.531Z,7.20
2022-12-01T11:21:08.079Z,7.77
2022-12-01T11:23:46.505Z,8.00
2022-12-01T11:26:20.855Z,7.85
2022-12-01T11:28:58.663Z,7.05
2022-12-01T11:31:39.403Z,6.90
2022-12-01T11:34:19.243Z,6.22
2022-12-01T11:36:49.600Z,7.13
2022-12-01T11:39:26.667Z,6.32
2022-12-01T11:42:01.150Z,5.93
2022-12-01T11:44:50.175Z,5.90
2022-12-01T11:47:24.608Z,5.90
2022-12-01T11:49:59.078Z,5.90
2022-12-01T11:52:44.913Z,5.50
2022-12-01T11:55:20.643Z,5.33
2022-12-01T11:57:50.694Z,5.63
2022-12-01T12:00:21.583Z,6.25
2022-12-01T12:03:16.272Z,6.18
2022-12-01T12:06:32.333Z,6.60
2022-12-01T12:09:04.708Z,6.57
2022-12-01T12:11:49.427Z,6.60
2022-12-01T12:14:24.176Z,6.43
2022-12-01T12:17:08.139Z,6.50
2022-12-01T12:20:09.245Z,7.60
2022-12-01T12:23:18.408Z,9.05
2022-12-01T12:26:10.011Z,8.52
2022-12-01T12:28:45.588Z,8.10
2022-12-01T12:31:51.480Z,7.60
2022-12-01T12:34:43.575Z,9.15
2022-12-01T12:37:10.877Z,8.45
2022-12-01T12:40:07.023Z,9.00
2022-12-01T12:43:06.411Z,8.15
2022-12-01T12:45:59.795Z,7.43
2022-12-01T12:48:36.038Z,7.70
2022-12-01T12:54:29.379Z,6.68
2022-12-01T12:57:03.284Z,6.40
2022-12-01T12:59:40.691Z,5.38
2022-12-01T13:02:33.554Z,6.53
2022-12-01T13:05:36.034Z,6.00
2022-12-01T13:08:26.660Z,5.93
2022-12-01T13:10:57.978Z,6.23
2022-12-01T13:13:37.601Z,6.22
2022-12-01T13:16:12.284Z,7.88
2022-12-01T13:19:04.880Z,7.85
2022-12-01T13:21:39.460Z,7.67
2022-12-01T13:24:10.302Z,7.88
2022-12-01T13:26:39.538Z,7.75
2022-12-01T13:29:08.851Z,8.07
2022-12-01T13:31:46.317Z,7.90
2022-12-01T13:34:38.444Z,8.23
2022-12-01T13:37:06.111Z,8.65
2022-12-01T13:39:35.851Z,7.50
2022-12-01T13:42:21.393Z,7.15
2022-12-01T13:44:59.629Z,7.32
2022-12-01T13:47:39.512Z,7.45
2022-12-01T13:50:39.031Z,7.15
2022-12-01T13:53:30.619Z,9.93
2022-12-01T13:56:07.934Z,10.20
2022-12-01T13:58:34.983Z,16.50
2022-12-01T14:01:20.731Z,16.65
2022-12-01T14:04:16.177Z,12.63
2022-12-01T14:06:52.372Z,10.68
2022-12-01T14:09:33.066Z,13.52
2022-12-01T14:12:10.726Z,15.10
2022-12-01T14:14:40.836Z,16.10
2022-12-01T14:17:26.266Z,17.30
2022-12-01T14:19:54.011Z,17.20
2022-12-01T14:22:40.238Z,16.55
